sensor_id;sensor_type;location;lat;lon;timestamp;pressure;altitude;pressure_sealevel;temperature;humidity
33697;BME280;20031;43.416;23.232;2022-09-09T00:02:11;99885.38;;;20.92;77.00
33697;BME280;20031;43.416;23.232;2022-09-09T00:04:48;99887.78;;;20.93;77.22
33697;BME280;20031;43.416;23.232;2022-09-09T00:13:05;99889.25;;;20.78;76.75
33697;BME280;20031;43.416;23.232;2022-09-09T00:15:57;99893.41;;;20.74;77.21
33697;BME280;20031;43.416;23.232;2022-09-09T00:21:32;99863.78;;;20.65;77.86
33697;BME280;20031;43.416;23.232;2022-09-09T00:23:58;99864.81;;;20.64;78.43
33697;BME280;20031;43.416;23.232;2022-09-09T00:26:37;99869.06;;;20.65;78.18
33697;BME280;20031;43.416;23.232;2022-09-09T00:31:45;99869.66;;;20.67;77.87
33697;BME280;20031;43.416;23.232;2022-09-09T00:34:21;99868.72;;;20.62;77.84
33697;BME280;20031;43.416;23.232;2022-09-09T00:36:50;99869.41;;;20.57;78.47
33697;BME280;20031;43.416;23.232;2022-09-09T00:39:38;99863.31;;;20.57;78.33
33697;BME280;20031;43.416;23.232;2022-09-09T00:42:24;99875.72;;;20.56;78.46
33697;BME280;20031;43.416;23.232;2022-09-09T00:47:48;99868.44;;;20.52;78.59
33697;BME280;20031;43.416;23.232;2022-09-09T00:50:49;99860.28;;;20.53;78.53
33697;BME280;20031;43.416;23.232;2022-09-09T00:56:23;99870.06;;;20.53;79.22
33697;BME280;20031;43.416;23.232;2022-09-09T00:59:00;99875.81;;;20.50;78.54
33697;BME280;20031;43.416;23.232;2022-09-09T01:01:30;99876.84;;;20.49;79.06
33697;BME280;20031;43.416;23.232;2022-09-09T01:03:56;99874.66;;;20.46;78.99
33697;BME280;20031;43.416;23.232;2022-09-09T01:06:32;99878.78;;;20.42;79.79
33697;BME280;20031;43.416;23.232;2022-09-09T01:17:30;99878.06;;;20.35;79.58
33697;BME280;20031;43.416;23.232;2022-09-09T01:20:20;99870.81;;;20.31;79.93
33697;BME280;20031;43.416;23.232;2022-09-09T01:23:04;99872.50;;;20.25;80.41
33697;BME280;20031;43.416;23.232;2022-09-09T01:28:30;99884.59;;;20.21;80.41
33697;BME280;20031;43.416;23.232;2022-09-09T01:30:58;99880.31;;;20.20;80.81
33697;BME280;20031;43.416;23.232;2022-09-09T01:33:24;99885.47;;;20.15;80.60
33697;BME280;20031;43.416;23.232;2022-09-09T01:35:56;99879.66;;;20.07;80.45
33697;BME280;20031;43.416;23.232;2022-09-09T01:38:23;99879.31;;;20.03;80.59
33697;BME280;20031;43.416;23.232;2022-09-09T01:40:50;99875.94;;;19.97;80.93
33697;BME280;20031;43.416;23.232;2022-09-09T01:43:19;99888.81;;;19.93;80.92
33697;BME280;20031;43.416;23.232;2022-09-09T01:45:46;99881.94;;;19.86;80.82
33697;BME280;20031;43.416;23.232;2022-09-09T01:48:14;99882.78;;;19.86;81.40
33697;BME280;20031;43.416;23.232;2022-09-09T01:50:40;99889.06;;;19.85;81.13
33697;BME280;20031;43.416;23.232;2022-09-09T01:53:05;99888.06;;;19.86;81.39
33697;BME280;20031;43.416;23.232;2022-09-09T01:55:42;99888.84;;;19.87;81.36
33697;BME280;20031;43.416;23.232;2022-09-09T02:03:28;99894.94;;;19.87;80.98
33697;BME280;20031;43.416;23.232;2022-09-09T02:06:26;99906.16;;;19.89;81.24
33697;BME280;20031;43.416;23.232;2022-09-09T02:08:56;99902.72;;;19.89;80.95
33697;BME280;20031;43.416;23.232;2022-09-09T02:11:24;99901.09;;;19.88;80.69
33697;BME280;20031;43.416;23.232;2022-09-09T02:14:02;99902.06;;;19.87;80.82
33697;BME280;20031;43.416;23.232;2022-09-09T02:16:42;99897.81;;;19.86;80.48
33697;BME280;20031;43.416;23.232;2022-09-09T02:19:24;99892.97;;;19.83;80.71
33697;BME280;20031;43.416;23.232;2022-09-09T02:21:54;99888.50;;;19.83;80.56
33697;BME280;20031;43.416;23.232;2022-09-09T02:24:21;99892.97;;;19.83;81.02
33697;BME280;20031;43.416;23.232;2022-09-09T02:26:49;99894.53;;;19.72;80.30
33697;BME280;20031;43.416;23.232;2022-09-09T02:29:30;99903.03;;;19.56;80.54
33697;BME280;20031;43.416;23.232;2022-09-09T02:31:59;99901.31;;;19.44;81.10
33697;BME280;20031;43.416;23.232;2022-09-09T02:34:29;99904.25;;;19.36;81.07
33697;BME280;20031;43.416;23.232;2022-09-09T02:36:57;99905.78;;;19.26;81.44
33697;BME280;20031;43.416;23.232;2022-09-09T02:39:22;99906.00;;;19.24;81.40
33697;BME280;20031;43.416;23.232;2022-09-09T02:41:48;99918.63;;;19.22;81.68
33697;BME280;20031;43.416;23.232;2022-09-09T02:44:16;99915.53;;;19.25;82.29
33697;BME280;20031;43.416;23.232;2022-09-09T02:52:50;99911.84;;;19.26;82.35
33697;BME280;20031;43.416;23.232;2022-09-09T02:55:41;99913.66;;;19.32;82.65
33697;BME280;20031;43.416;23.232;2022-09-09T02:58:11;99912.16;;;19.36;82.93
33697;BME280;20031;43.416;23.232;2022-09-09T03:00:39;99911.75;;;19.39;82.52
33697;BME280;20031;43.416;23.232;2022-09-09T03:03:06;99917.03;;;19.39;82.74
33697;BME280;20031;43.416;23.232;2022-09-09T03:05:32;99911.75;;;19.39;82.14
33697;BME280;20031;43.416;23.232;2022-09-09T03:07:58;99916.22;;;19.39;82.61
33697;BME280;20031;43.416;23.232;2022-09-09T03:10:23;99923.91;;;19.40;82.39
33697;BME280;20031;43.416;23.232;2022-09-09T03:12:49;99923.91;;;19.40;82.40
33697;BME280;20031;43.416;23.232;2022-09-09T03:15:16;99919.69;;;19.39;82.37
33697;BME280;20031;43.416;23.232;2022-09-09T03:17:41;99922.72;;;19.36;81.71
33697;BME280;20031;43.416;23.232;2022-09-09T03:20:07;99929.06;;;19.35;81.73
33697;BME280;20031;43.416;23.232;2022-09-09T03:22:34;99924.66;;;19.29;81.19
33697;BME280;20031;43.416;23.232;2022-09-09T03:24:59;99932.41;;;19.24;81.81
33697;BME280;20031;43.416;23.232;2022-09-09T03:27:25;99923.06;;;19.22;81.71
33697;BME280;20031;43.416;23.232;2022-09-09T03:29:50;99929.00;;;19.17;82.09
33697;BME280;20031;43.416;23.232;2022-09-09T03:32:17;99932.03;;;19.21;82.35
33697;BME280;20031;43.416;23.232;2022-09-09T03:34:43;99933.41;;;19.23;82.13
33697;BME280;20031;43.416;23.232;2022-09-09T03:37:08;99933.41;;;19.23;82.16
33697;BME280;20031;43.416;23.232;2022-09-09T03:39:34;99922.28;;;19.21;82.06
33697;BME280;20031;43.416;23.232;2022-09-09T03:41:59;99920.06;;;19.18;81.94
33697;BME280;20031;43.416;23.232;2022-09-09T03:44:29;99932.88;;;19.15;82.47
33697;BME280;20031;43.416;23.232;2022-09-09T03:46:55;99931.66;;;19.17;82.00
33697;BME280;20031;43.416;23.232;2022-09-09T03:49:21;99926.97;;;19.19;82.06
33697;BME280;20031;43.416;23.232;2022-09-09T03:51:47;99936.16;;;19.10;81.74
33697;BME280;20031;43.416;23.232;2022-09-09T03:54:13;99937.22;;;19.09;82.20
33697;BME280;20031;43.416;23.232;2022-09-09T03:56:38;99920.94;;;19.12;82.64
33697;BME280;20031;43.416;23.232;2022-09-09T03:59:06;99925.16;;;19.13;82.60
33697;BME280;20031;43.416;23.232;2022-09-09T04:01:34;99933.09;;;19.13;82.49
33697;BME280;20031;43.416;23.232;2022-09-09T04:03:59;99933.50;;;19.17;82.80
33697;BME280;20031;43.416;23.232;2022-09-09T04:06:27;99938.91;;;19.22;82.99
33697;BME280;20031;43.416;23.232;2022-09-09T04:08:53;99931.38;;;19.25;82.84
33697;BME280;20031;43.416;23.232;2022-09-09T04:11:18;99934.59;;;19.27;82.70
33697;BME280;20031;43.416;23.232;2022-09-09T04:13:45;99936.50;;;19.20;82.45
33697;BME280;20031;43.416;23.232;2022-09-09T04:16:11;99937.53;;;19.19;83.27
33697;BME280;20031;43.416;23.232;2022-09-09T04:18:38;99937.53;;;19.19;82.84
33697;BME280;20031;43.416;23.232;2022-09-09T04:21:04;99937.53;;;19.19;82.98
33697;BME280;20031;43.416;23.232;2022-09-09T04:23:32;99925.50;;;19.23;82.86
33697;BME280;20031;43.416;23.232;2022-09-09T04:25:59;99932.97;;;19.26;83.08
33697;BME280;20031;43.416;23.232;2022-09-09T04:28:28;99943.84;;;19.36;83.56
33697;BME280;20031;43.416;23.232;2022-09-09T04:30:54;99944.56;;;19.49;83.25
33697;BME280;20031;43.416;23.232;2022-09-09T04:33:19;99940.34;;;19.66;83.04
33697;BME280;20031;43.416;23.232;2022-09-09T04:35:48;99938.13;;;19.81;82.60
33697;BME280;20031;43.416;23.232;2022-09-09T04:38:15;99938.00;;;19.94;82.43
33697;BME280;20031;43.416;23.232;2022-09-09T04:40:46;99943.13;;;20.07;81.82
33697;BME280;20031;43.416;23.232;2022-09-09T04:43:12;99940.44;;;20.13;81.31
33697;BME280;20031;43.416;23.232;2022-09-09T04:45:37;99934.41;;;20.24;81.37
33697;BME280;20031;43.416;23.232;2022-09-09T04:48:03;99926.06;;;20.39;81.03
33697;BME280;20031;43.416;23.232;2022-09-09T04:50:29;99917.00;;;20.46;79.98
33697;BME280;20031;43.416;23.232;2022-09-09T04:52:54;99914.50;;;20.51;78.80
33697;BME280;20031;43.416;23.232;2022-09-09T04:55:19;99921.16;;;20.53;78.45
33697;BME280;20031;43.416;23.232;2022-09-09T04:57:45;99920.31;;;20.42;77.64
33697;BME280;20031;43.416;23.232;2022-09-09T05:00:11;99920.22;;;20.48;78.25
33697;BME280;20031;43.416;23.232;2022-09-09T05:02:37;99909.00;;;20.64;78.03
33697;BME280;20031;43.416;23.232;2022-09-09T05:05:04;99916.56;;;20.78;78.10
33697;BME280;20031;43.416;23.232;2022-09-09T05:07:30;99932.78;;;20.82;77.61
33697;BME280;20031;43.416;23.232;2022-09-09T05:09:56;99927.53;;;21.04;77.67
33697;BME280;20031;43.416;23.232;2022-09-09T05:12:22;99933.44;;;21.29;76.76
33697;BME280;20031;43.416;23.232;2022-09-09T05:14:49;99930.03;;;21.52;76.36
33697;BME280;20031;43.416;23.232;2022-09-09T05:17:15;99929.19;;;21.74;75.18
33697;BME280;20031;43.416;23.232;2022-09-09T05:19:41;99918.56;;;21.74;73.74
33697;BME280;20031;43.416;23.232;2022-09-09T05:22:06;99926.97;;;21.94;74.18
33697;BME280;20031;43.416;23.232;2022-09-09T05:24:32;99935.13;;;22.03;73.25
33697;BME280;20031;43.416;23.232;2022-09-09T05:26:59;99934.53;;;22.13;72.84
33697;BME280;20031;43.416;23.232;2022-09-09T05:29:27;99933.28;;;22.15;72.62
33697;BME280;20031;43.416;23.232;2022-09-09T05:31:52;99927.72;;;22.17;71.66
33697;BME280;20031;43.416;23.232;2022-09-09T05:34:18;99931.97;;;22.29;70.84
33697;BME280;20031;43.416;23.232;2022-09-09T05:36:43;99933.03;;;22.28;70.35
33697;BME280;20031;43.416;23.232;2022-09-09T05:39:09;99926.66;;;22.29;70.46
33697;BME280;20031;43.416;23.232;2022-09-09T05:41:37;99926.53;;;22.36;70.29
33697;BME280;20031;43.416;23.232;2022-09-09T05:44:02;99924.34;;;22.33;70.39
33697;BME280;20031;43.416;23.232;2022-09-09T05:46:28;99923.44;;;22.27;70.13
33697;BME280;20031;43.416;23.232;2022-09-09T05:48:54;99925.06;;;22.28;70.16
33697;BME280;20031;43.416;23.232;2022-09-09T05:51:24;99918.94;;;22.16;69.99
33697;BME280;20031;43.416;23.232;2022-09-09T05:53:50;99928.28;;;22.19;70.10
33697;BME280;20031;43.416;23.232;2022-09-09T05:56:24;99923.22;;;22.17;70.61
33697;BME280;20031;43.416;23.232;2022-09-09T05:58:50;99928.19;;;22.25;70.77
33697;BME280;20031;43.416;23.232;2022-09-09T06:01:22;99935.28;;;22.36;70.15
33697;BME280;20031;43.416;23.232;2022-09-09T06:03:49;99926.09;;;22.55;70.06
33697;BME280;20031;43.416;23.232;2022-09-09T06:06:17;99925.41;;;22.76;69.34
33697;BME280;20031;43.416;23.232;2022-09-09T06:08:45;99920.38;;;22.91;68.55
33697;BME280;20031;43.416;23.232;2022-09-09T06:11:17;99916.56;;;22.87;68.28
33697;BME280;20031;43.416;23.232;2022-09-09T06:13:43;99924.97;;;22.95;68.85
33697;BME280;20031;43.416;23.232;2022-09-09T06:16:16;99925.44;;;22.92;68.62
33697;BME280;20031;43.416;23.232;2022-09-09T06:18:42;99920.97;;;23.09;69.19
33697;BME280;20031;43.416;23.232;2022-09-09T06:21:16;99913.69;;;23.37;67.92
33697;BME280;20031;43.416;23.232;2022-09-09T06:23:42;99914.72;;;23.69;67.26
33697;BME280;20031;43.416;23.232;2022-09-09T06:26:14;99919.88;;;23.97;66.57
33697;BME280;20031;43.416;23.232;2022-09-09T06:28:40;99918.00;;;24.18;65.02
33697;BME280;20031;43.416;23.232;2022-09-09T06:31:10;99924.94;;;24.19;64.14
33697;BME280;20031;43.416;23.232;2022-09-09T06:33:38;99919.81;;;24.34;64.08
33697;BME280;20031;43.416;23.232;2022-09-09T06:36:14;99920.09;;;24.59;63.41
33697;BME280;20031;43.416;23.232;2022-09-09T06:38:44;99908.03;;;24.83;62.90
33697;BME280;20031;43.416;23.232;2022-09-09T06:41:10;99910.59;;;24.99;62.22
33697;BME280;20031;43.416;23.232;2022-09-09T06:43:37;99919.56;;;25.19;61.17
33697;BME280;20031;43.416;23.232;2022-09-09T06:46:05;99926.91;;;25.39;61.25
33697;BME280;20031;43.416;23.232;2022-09-09T06:48:31;99923.78;;;25.47;60.43
33697;BME280;20031;43.416;23.232;2022-09-09T06:51:04;99921.03;;;25.73;59.92
33697;BME280;20031;43.416;23.232;2022-09-09T06:53:30;99917.94;;;25.96;58.85
33697;BME280;20031;43.416;23.232;2022-09-09T06:56:02;99930.31;;;26.21;57.89
33697;BME280;20031;43.416;23.232;2022-09-09T06:58:28;99931.34;;;26.11;57.92
33697;BME280;20031;43.416;23.232;2022-09-09T07:01:04;99938.84;;;26.14;57.76
33697;BME280;20031;43.416;23.232;2022-09-09T07:03:30;99931.06;;;26.07;56.35
33697;BME280;20031;43.416;23.232;2022-09-09T07:05:56;99931.34;;;26.11;56.58
33697;BME280;20031;43.416;23.232;2022-09-09T07:08:23;99927.19;;;26.29;56.79
33697;BME280;20031;43.416;23.232;2022-09-09T07:10:50;99928.06;;;26.55;55.92
33697;BME280;20031;43.416;23.232;2022-09-09T07:13:19;99927.78;;;26.71;56.08
33697;BME280;20031;43.416;23.232;2022-09-09T07:15:46;99928.06;;;26.70;55.39
33697;BME280;20031;43.416;23.232;2022-09-09T07:18:11;99929.66;;;26.66;55.53
33697;BME280;20031;43.416;23.232;2022-09-09T07:20:37;99925.13;;;26.66;56.27
33697;BME280;20031;43.416;23.232;2022-09-09T07:23:03;99925.16;;;26.76;56.34
33697;BME280;20031;43.416;23.232;2022-09-09T07:25:28;99927.53;;;26.82;55.59
33697;BME280;20031;43.416;23.232;2022-09-09T07:27:56;99926.00;;;27.01;55.91
33697;BME280;20031;43.416;23.232;2022-09-09T07:30:21;99923.84;;;27.13;55.28
33697;BME280;20031;43.416;23.232;2022-09-09T07:32:47;99927.34;;;27.09;54.32
33697;BME280;20031;43.416;23.232;2022-09-09T07:35:12;99925.72;;;27.08;54.10
33697;BME280;20031;43.416;23.232;2022-09-09T07:37:37;99924.66;;;27.09;54.55
33697;BME280;20031;43.416;23.232;2022-09-09T07:40:03;99934.81;;;27.12;55.63
33697;BME280;20031;43.416;23.232;2022-09-09T07:42:30;99932.94;;;27.17;56.42
33697;BME280;20031;43.416;23.232;2022-09-09T07:44:55;99934.81;;;27.12;56.70
33697;BME280;20031;43.416;23.232;2022-09-09T07:47:21;99938.81;;;27.09;56.66
33697;BME280;20031;43.416;23.232;2022-09-09T07:49:47;99939.09;;;27.08;56.52
33697;BME280;20031;43.416;23.232;2022-09-09T07:52:14;99944.72;;;27.11;57.48
33697;BME280;20031;43.416;23.232;2022-09-09T07:54:40;99950.88;;;27.12;56.92
33697;BME280;20031;43.416;23.232;2022-09-09T07:57:05;99941.50;;;27.19;57.05
33697;BME280;20031;43.416;23.232;2022-09-09T07:59:31;99940.44;;;27.30;57.53
33697;BME280;20031;43.416;23.232;2022-09-09T08:01:56;99943.34;;;27.33;57.67
33697;BME280;20031;43.416;23.232;2022-09-09T08:04:24;99938.00;;;27.38;56.11
33697;BME280;20031;43.416;23.232;2022-09-09T08:06:55;99940.41;;;27.45;55.55
33697;BME280;20031;43.416;23.232;2022-09-09T08:09:22;99932.63;;;27.68;55.38
33697;BME280;20031;43.416;23.232;2022-09-09T08:11:50;99941.19;;;27.75;55.32
33697;BME280;20031;43.416;23.232;2022-09-09T08:14:16;99939.03;;;27.77;55.11
33697;BME280;20031;43.416;23.232;2022-09-09T08:16:44;99943.06;;;27.79;53.96
33697;BME280;20031;43.416;23.232;2022-09-09T08:19:10;99943.00;;;27.94;53.86
33697;BME280;20031;43.416;23.232;2022-09-09T08:21:38;99941.88;;;28.15;53.98
33697;BME280;20031;43.416;23.232;2022-09-09T08:24:05;99944.81;;;28.19;52.55
33697;BME280;20031;43.416;23.232;2022-09-09T08:26:39;99942.91;;;28.24;52.07
33697;BME280;20031;43.416;23.232;2022-09-09T08:29:08;99935.19;;;28.18;51.40
33697;BME280;20031;43.416;23.232;2022-09-09T08:31:56;99939.97;;;28.21;51.14
33697;BME280;20031;43.416;23.232;2022-09-09T08:34:22;99936.25;;;28.22;51.31
33697;BME280;20031;43.416;23.232;2022-09-09T08:36:49;99935.63;;;28.34;50.77
33697;BME280;20031;43.416;23.232;2022-09-09T08:39:17;99933.47;;;28.36;50.46
33697;BME280;20031;43.416;23.232;2022-09-09T08:50:21;99929.50;;;28.24;51.42
33697;BME280;20031;43.416;23.232;2022-09-09T08:53:02;99930.03;;;28.26;51.29
33697;BME280;20031;43.416;23.232;2022-09-09T08:58:31;99928.44;;;28.30;49.79
33697;BME280;20031;43.416;23.232;2022-09-09T09:11:40;99945.81;;;28.37;47.48
33697;BME280;20031;43.416;23.232;2022-09-09T09:14:19;99937.97;;;28.46;47.38
33697;BME280;20031;43.416;23.232;2022-09-09T09:16:56;99951.13;;;28.47;46.81
33697;BME280;20031;43.416;23.232;2022-09-09T09:19:23;99936.94;;;28.42;47.82
33697;BME280;20031;43.416;23.232;2022-09-09T09:22:15;99940.69;;;28.41;48.25
33697;BME280;20031;43.416;23.232;2022-09-09T09:24:49;99933.75;;;28.40;47.99
33697;BME280;20031;43.416;23.232;2022-09-09T09:27:34;99944.94;;;28.47;47.89
33697;BME280;20031;43.416;23.232;2022-09-09T09:30:21;99942.47;;;28.55;47.90
33697;BME280;20031;43.416;23.232;2022-09-09T09:32:55;99940.56;;;28.61;47.71
33697;BME280;20031;43.416;23.232;2022-09-09T09:35:23;99940.22;;;28.77;47.40
33697;BME280;20031;43.416;23.232;2022-09-09T09:37:49;99932.91;;;28.87;47.48
33697;BME280;20031;43.416;23.232;2022-09-09T09:40:21;99943.47;;;29.12;46.74
33697;BME280;20031;43.416;23.232;2022-09-09T09:43:00;99931.34;;;29.15;47.04
33697;BME280;20031;43.416;23.232;2022-09-09T09:45:44;99945.28;;;29.17;47.40
33697;BME280;20031;43.416;23.232;2022-09-09T09:48:14;99936.19;;;29.13;46.54
33697;BME280;20031;43.416;23.232;2022-09-09T09:51:09;99932.75;;;29.07;46.45
33697;BME280;20031;43.416;23.232;2022-09-09T09:53:38;99938.69;;;28.99;46.23
33697;BME280;20031;43.416;23.232;2022-09-09T09:56:06;99945.03;;;28.80;47.03
33697;BME280;20031;43.416;23.232;2022-09-09T10:01:02;99948.84;;;28.69;47.61
33697;BME280;20031;43.416;23.232;2022-09-09T10:03:31;99948.66;;;28.56;47.03
33697;BME280;20031;43.416;23.232;2022-09-09T10:05:57;99947.38;;;28.43;47.70
33697;BME280;20031;43.416;23.232;2022-09-09T10:08:27;99946.31;;;28.44;47.37
33697;BME280;20031;43.416;23.232;2022-09-09T10:19:32;99956.63;;;28.18;48.82
33697;BME280;20031;43.416;23.232;2022-09-09T10:22:25;99960.63;;;28.20;49.33
33697;BME280;20031;43.416;23.232;2022-09-09T10:27:43;99958.16;;;28.29;48.41
33697;BME280;20031;43.416;23.232;2022-09-09T10:30:43;99956.56;;;28.28;48.22
33697;BME280;20031;43.416;23.232;2022-09-09T10:36:21;99965.75;;;28.65;47.62
33697;BME280;20031;43.416;23.232;2022-09-09T10:39:01;99956.31;;;28.77;47.78
33697;BME280;20031;43.416;23.232;2022-09-09T10:44:17;99964.94;;;28.74;47.99
33697;BME280;20031;43.416;23.232;2022-09-09T10:47:25;99962.25;;;28.74;48.24
33697;BME280;20031;43.416;23.232;2022-09-09T10:50:03;99959.44;;;28.94;49.52
33697;BME280;20031;43.416;23.232;2022-09-09T10:57:42;99958.72;;;28.79;49.55
33697;BME280;20031;43.416;23.232;2022-09-09T11:00:51;99958.31;;;28.95;50.64
33697;BME280;20031;43.416;23.232;2022-09-09T11:03:26;99948.41;;;28.95;51.54
33697;BME280;20031;43.416;23.232;2022-09-09T11:06:01;99943.44;;;28.79;50.80
33697;BME280;20031;43.416;23.232;2022-09-09T11:08:30;99939.31;;;28.91;52.20
33697;BME280;20031;43.416;23.232;2022-09-09T11:11:25;99935.78;;;29.01;52.13
33697;BME280;20031;43.416;23.232;2022-09-09T11:22:51;99922.59;;;28.71;53.08
33697;BME280;20031;43.416;23.232;2022-09-09T11:24:54;99923.91;;;28.64;55.29
33697;BME280;20031;43.416;23.232;2022-09-09T11:27:27;99917.28;;;28.56;55.73
33697;BME280;20031;43.416;23.232;2022-09-09T11:38:26;99907.34;;;28.57;58.08
33697;BME280;20031;43.416;23.232;2022-09-09T11:41:04;99893.13;;;28.61;59.96
33697;BME280;20031;43.416;23.232;2022-09-09T11:43:44;99887.25;;;28.54;58.29
33697;BME280;20031;43.416;23.232;2022-09-09T11:46:13;99891.75;;;28.69;56.40
33697;BME280;20031;43.416;23.232;2022-09-09T11:48:46;99902.16;;;28.75;54.91
33697;BME280;20031;43.416;23.232;2022-09-09T11:51:27;99904.47;;;28.86;54.93
33697;BME280;20031;43.416;23.232;2022-09-09T11:56:27;99905.28;;;29.48;53.03
33697;BME280;20031;43.416;23.232;2022-09-09T11:58:59;99899.31;;;29.80;52.57
33697;BME280;20031;43.416;23.232;2022-09-09T12:01:34;99887.59;;;29.94;51.03
33697;BME280;20031;43.416;23.232;2022-09-09T12:04:13;99883.09;;;29.66;50.86
33697;BME280;20031;43.416;23.232;2022-09-09T12:06:52;99877.41;;;29.44;52.53
33697;BME280;20031;43.416;23.232;2022-09-09T12:11:48;99865.06;;;29.43;53.17
33697;BME280;20031;43.416;23.232;2022-09-09T12:19:40;99865.72;;;30.60;51.35
33697;BME280;20031;43.416;23.232;2022-09-09T12:22:31;99854.56;;;31.03;49.51
33697;BME280;20031;43.416;23.232;2022-09-09T12:31:10;99841.22;;;31.25;47.28
33697;BME280;20031;43.416;23.232;2022-09-09T12:33:43;99838.28;;;31.08;49.13
33697;BME280;20031;43.416;23.232;2022-09-09T12:36:27;99827.44;;;31.40;48.36
33697;BME280;20031;43.416;23.232;2022-09-09T12:38:54;99830.75;;;31.91;46.27
33697;BME280;20031;43.416;23.232;2022-09-09T12:41:26;99822.19;;;32.24;47.22
33697;BME280;20031;43.416;23.232;2022-09-09T12:44:06;99817.63;;;32.59;46.47
33697;BME280;20031;43.416;23.232;2022-09-09T12:46:48;99805.56;;;32.87;44.57
33697;BME280;20031;43.416;23.232;2022-09-09T12:49:38;99804.09;;;33.03;44.88
33697;BME280;20031;43.416;23.232;2022-09-09T12:54:56;99819.63;;;32.76;43.70
33697;BME280;20031;43.416;23.232;2022-09-09T12:57:37;99806.09;;;32.32;44.18
33697;BME280;20031;43.416;23.232;2022-09-09T13:00:19;99805.44;;;32.27;43.68
33697;BME280;20031;43.416;23.232;2022-09-09T13:02:55;99813.19;;;31.93;43.80
33697;BME280;20031;43.416;23.232;2022-09-09T13:05:37;99806.22;;;32.05;45.54
33697;BME280;20031;43.416;23.232;2022-09-09T13:08:11;99805.09;;;31.80;45.67
33697;BME280;20031;43.416;23.232;2022-09-09T13:11:06;99793.38;;;31.62;45.98
33697;BME280;20031;43.416;23.232;2022-09-09T13:13:38;99804.03;;;31.54;46.00
33697;BME280;20031;43.416;23.232;2022-09-09T13:16:30;99801.63;;;31.39;46.46
33697;BME280;20031;43.416;23.232;2022-09-09T13:19:10;99796.13;;;31.17;46.16
33697;BME280;20031;43.416;23.232;2022-09-09T13:21:40;99793.63;;;30.94;46.79
33697;BME280;20031;43.416;23.232;2022-09-09T13:24:21;99796.75;;;30.51;46.38
33697;BME280;20031;43.416;23.232;2022-09-09T13:27:00;99787.75;;;30.42;47.35
33697;BME280;20031;43.416;23.232;2022-09-09T13:29:30;99791.81;;;30.40;47.17
33697;BME280;20031;43.416;23.232;2022-09-09T13:32:12;99781.59;;;30.42;47.06
33697;BME280;20031;43.416;23.232;2022-09-09T13:34:53;99783.97;;;30.43;46.89
33697;BME280;20031;43.416;23.232;2022-09-09T13:37:43;99781.75;;;30.63;46.86
33697;BME280;20031;43.416;23.232;2022-09-09T13:40:20;99776.00;;;31.15;45.75
33697;BME280;20031;43.416;23.232;2022-09-09T13:42:47;99774.81;;;31.21;45.11
33697;BME280;20031;43.416;23.232;2022-09-09T13:45:18;99779.69;;;31.46;45.49
33697;BME280;20031;43.416;23.232;2022-09-09T13:47:46;99773.09;;;31.51;44.58
33697;BME280;20031;43.416;23.232;2022-09-09T13:50:20;99776.41;;;31.62;44.02
33697;BME280;20031;43.416;23.232;2022-09-09T13:52:50;99774.31;;;31.59;44.31
33697;BME280;20031;43.416;23.232;2022-09-09T13:55:17;99762.13;;;31.61;44.66
33697;BME280;20031;43.416;23.232;2022-09-09T13:58:00;99769.75;;;31.46;44.76
33697;BME280;20031;43.416;23.232;2022-09-09T14:00:29;99768.50;;;31.39;45.78
33697;BME280;20031;43.416;23.232;2022-09-09T14:02:54;99757.22;;;31.23;45.67
33697;BME280;20031;43.416;23.232;2022-09-09T14:05:20;99762.63;;;31.10;45.90
33697;BME280;20031;43.416;23.232;2022-09-09T14:07:47;99766.91;;;31.11;46.59
33697;BME280;20031;43.416;23.232;2022-09-09T14:10:13;99760.81;;;31.05;46.21
33697;BME280;20031;43.416;23.232;2022-09-09T14:12:39;99765.97;;;30.89;46.21
33697;BME280;20031;43.416;23.232;2022-09-09T14:15:06;99759.78;;;30.88;45.89
33697;BME280;20031;43.416;23.232;2022-09-09T14:17:32;99749.53;;;30.90;46.30
33697;BME280;20031;43.416;23.232;2022-09-09T14:19:58;99748.09;;;30.79;46.26
33697;BME280;20031;43.416;23.232;2022-09-09T14:22:24;99746.94;;;30.85;46.51
33697;BME280;20031;43.416;23.232;2022-09-09T14:24:50;99745.41;;;30.79;47.03
33697;BME280;20031;43.416;23.232;2022-09-09T14:27:16;99750.19;;;30.69;47.00
33697;BME280;20031;43.416;23.232;2022-09-09T14:29:44;99753.06;;;30.72;47.03
33697;BME280;20031;43.416;23.232;2022-09-09T14:32:10;99751.38;;;30.76;46.32
33697;BME280;20031;43.416;23.232;2022-09-09T14:34:36;99744.41;;;30.75;46.87
33697;BME280;20031;43.416;23.232;2022-09-09T14:37:02;99749.03;;;30.56;47.55
33697;BME280;20031;43.416;23.232;2022-09-09T14:39:27;99755.59;;;30.32;47.16
33697;BME280;20031;43.416;23.232;2022-09-09T14:41:53;99752.06;;;30.00;47.79
33697;BME280;20031;43.416;23.232;2022-09-09T14:44:18;99750.66;;;29.89;48.74
33697;BME280;20031;43.416;23.232;2022-09-09T14:46:44;99755.59;;;29.77;48.19
33697;BME280;20031;43.416;23.232;2022-09-09T14:49:10;99754.66;;;29.68;48.41
33697;BME280;20031;43.416;23.232;2022-09-09T14:51:35;99756.19;;;29.74;49.68
33697;BME280;20031;43.416;23.232;2022-09-09T14:54:02;99756.47;;;29.73;48.66
33697;BME280;20031;43.416;23.232;2022-09-09T14:56:30;99756.09;;;29.61;48.94
33697;BME280;20031;43.416;23.232;2022-09-09T14:58:57;99768.84;;;29.50;49.52
33697;BME280;20031;43.416;23.232;2022-09-09T15:01:23;99769.22;;;29.44;49.84
33697;BME280;20031;43.416;23.232;2022-09-09T15:03:51;99774.88;;;29.42;49.07
33697;BME280;20031;43.416;23.232;2022-09-09T15:06:18;99765.44;;;29.45;49.34
33697;BME280;20031;43.416;23.232;2022-09-09T15:08:45;99772.13;;;29.89;49.19
33697;BME280;20031;43.416;23.232;2022-09-09T15:11:12;99763.56;;;30.87;47.10
33697;BME280;20031;43.416;23.232;2022-09-09T15:13:39;99759.34;;;30.36;47.59